Terminal Aerodrome Forecast
Issued by NWS Memphis, TN

Home | Current Version | Previous Version | Text Only | Print | Product List | Glossary On
Versions: 1 2 3 4 5 6 7 8 9 10 11 12 13 14 15 16 17 18 19 20
000
FTUS44 KMEG 041730
TAFJBR
TAF
KJBR 041730Z 0418/0518 08004KT P6SM VCTS SCT015 BKN025CB
     FM050100 VRB02KT P6SM SCT030 BKN150
     FM050600 VRB02KT 5SM BR SCT012 BKN025
     FM051600 19007KT P6SM SCT025 BKN040=

USA.gov is the U.S. government's official web portal to all federal, state and local government web resources and services.